createdAt,value
2019-03-03T00:01:45.570Z,68.89
2019-03-03T00:04:34.341Z,69.06
2019-03-03T00:07:23.118Z,69.54
2019-03-03T00:10:12.456Z,70.22
2019-03-03T00:13:01.302Z,70.97
2019-03-03T00:15:50.067Z,71.13
2019-03-03T00:18:31.320Z,71.49
2019-03-03T00:21:20.086Z,71.62
2019-03-03T00:24:08.889Z,71.82
2019-03-03T00:26:38.313Z,72.39
2019-03-03T00:29:07.750Z,72.00
2019-03-03T00:31:39.589Z,72.63
2019-03-03T00:34:09.027Z,72.98
2019-03-03T00:36:58.239Z,73.11
2019-03-03T00:39:45.644Z,72.94
2019-03-03T00:42:34.738Z,73.02
2019-03-03T00:45:21.319Z,73.32
2019-03-03T00:48:08.505Z,73.66
2019-03-03T00:50:42.204Z,73.70
2019-03-03T00:53:29.146Z,73.71
2019-03-03T00:56:03.237Z,74.00
2019-03-03T00:58:38.301Z,74.02
2019-03-03T01:01:09.487Z,73.67
2019-03-03T01:03:40.555Z,73.92
2019-03-03T01:06:17.054Z,73.92
2019-03-03T01:08:50.875Z,73.97
2019-03-03T01:11:21.944Z,74.09
2019-03-03T01:14:01.958Z,73.88
2019-03-03T01:16:49.740Z,73.75
2019-03-03T01:19:20.804Z,73.61
2019-03-03T01:21:54.612Z,73.58
2019-03-03T01:24:25.663Z,73.76
2019-03-03T01:26:55.135Z,73.83
2019-03-03T01:29:24.639Z,73.19
2019-03-03T01:31:54.074Z,73.18
2019-03-03T01:34:23.504Z,73.09
2019-03-03T01:36:52.933Z,72.96
2019-03-03T01:39:22.355Z,72.77
2019-03-03T01:41:51.784Z,72.79
2019-03-03T01:44:21.209Z,72.76
2019-03-03T01:46:50.640Z,72.53
2019-03-03T01:49:20.082Z,72.32
2019-03-03T01:51:49.507Z,71.81
2019-03-03T01:54:18.949Z,72.07
2019-03-03T01:56:48.369Z,71.86
2019-03-03T01:59:17.806Z,71.85
2019-03-03T02:01:47.277Z,71.45
2019-03-03T02:04:16.704Z,71.49
2019-03-03T02:06:46.128Z,71.30
2019-03-03T02:09:15.824Z,71.03
2019-03-03T02:11:45.307Z,71.36
2019-03-03T02:14:14.736Z,71.43
2019-03-03T02:16:44.164Z,71.27
2019-03-03T02:19:13.599Z,71.25
2019-03-03T02:21:43.108Z,71.35
2019-03-03T02:24:12.558Z,71.32
2019-03-03T02:26:42.074Z,71.36
2019-03-03T02:29:11.513Z,71.14
2019-03-03T02:31:40.936Z,71.38
2019-03-03T02:34:10.391Z,71.39
2019-03-03T02:36:39.816Z,71.61
2019-03-03T02:39:15.618Z,71.56
2019-03-03T02:41:45.041Z,71.77
2019-03-03T02:44:14.731Z,71.35
2019-03-03T02:46:44.155Z,71.11
2019-03-03T02:49:13.604Z,71.12
2019-03-03T02:51:43.032Z,71.34
2019-03-03T02:54:12.465Z,71.43
2019-03-03T02:56:41.894Z,71.64
2019-03-03T02:59:11.328Z,71.46
2019-03-03T03:01:42.414Z,71.47
2019-03-03T03:04:11.860Z,71.63
2019-03-03T03:06:42.924Z,71.62
2019-03-03T03:09:14.278Z,71.85
2019-03-03T03:11:43.540Z,71.53
2019-03-03T03:14:20.603Z,71.62
2019-03-03T03:17:00.365Z,71.36
2019-03-03T03:19:31.454Z,71.49
2019-03-03T03:22:02.537Z,71.78
2019-03-03T03:24:34.695Z,71.39
2019-03-03T03:27:08.485Z,71.93
2019-03-03T03:29:42.045Z,72.21
2019-03-03T03:32:19.136Z,71.92
2019-03-03T03:34:50.232Z,72.06
2019-03-03T03:37:33.337Z,72.29
2019-03-03T03:40:04.407Z,72.16
2019-03-03T03:42:51.603Z,72.09
2019-03-03T03:45:26.542Z,72.01
2019-03-03T03:48:00.317Z,72.13
2019-03-03T03:50:31.399Z,72.30
2019-03-03T03:53:08.233Z,72.21
2019-03-03T03:55:49.838Z,72.02
2019-03-03T03:58:29.755Z,72.12
2019-03-03T04:01:15.765Z,72.14
2019-03-03T04:03:49.346Z,71.94
2019-03-03T04:06:20.408Z,72.19
2019-03-03T04:09:01.999Z,72.24
2019-03-03T04:11:48.362Z,72.17
2019-03-03T04:14:25.359Z,72.00
2019-03-03T04:16:56.422Z,71.94
2019-03-03T04:19:30.228Z,71.97
2019-03-03T04:22:02.102Z,71.96
2019-03-03T04:24:36.054Z,71.90
2019-03-03T04:27:07.115Z,72.01
2019-03-03T04:29:44.111Z,72.00
2019-03-03T04:32:15.176Z,71.84
2019-03-03T04:34:46.253Z,71.30
2019-03-03T04:37:32.414Z,71.81
2019-03-03T04:40:09.374Z,71.78
2019-03-03T04:42:38.573Z,72.27
2019-03-03T04:45:21.675Z,72.44
2019-03-03T04:48:05.520Z,72.42
2019-03-03T04:50:51.887Z,72.69
2019-03-03T04:53:29.000Z,72.59
2019-03-03T04:56:05.558Z,71.97
2019-03-03T04:58:51.843Z,72.25
2019-03-03T05:01:31.931Z,72.65
2019-03-03T05:04:01.124Z,72.61
2019-03-03T05:06:32.263Z,72.72
2019-03-03T05:09:06.032Z,72.41
2019-03-03T05:12:23.491Z,72.26
2019-03-03T05:14:54.566Z,72.26
2019-03-03T05:17:39.061Z,72.18
2019-03-03T05:20:10.407Z,72.03
2019-03-03T05:22:39.829Z,71.61
2019-03-03T05:25:09.436Z,71.45
2019-03-03T05:27:38.859Z,70.99
2019-03-03T05:30:12.611Z,70.55
2019-03-03T05:32:42.036Z,70.54
2019-03-03T05:35:11.830Z,70.35
2019-03-03T05:37:41.255Z,70.35
2019-03-03T05:40:10.690Z,69.68
2019-03-03T05:42:40.112Z,69.55
2019-03-03T05:45:09.680Z,69.41
2019-03-03T05:47:39.106Z,69.39
2019-03-03T05:50:08.532Z,69.04
2019-03-03T05:52:37.982Z,69.05
2019-03-03T05:55:07.777Z,69.05
2019-03-03T05:57:37.206Z,68.94
2019-03-03T06:00:10.783Z,68.98
2019-03-03T06:02:40.209Z,68.74
2019-03-03T06:05:09.621Z,69.05
2019-03-03T06:07:39.043Z,69.04
2019-03-03T06:10:10.206Z,68.99
2019-03-03T06:12:39.635Z,68.92
2019-03-03T06:15:13.608Z,68.98
2019-03-03T06:17:43.031Z,68.80
2019-03-03T06:20:13.414Z,68.85
2019-03-03T06:22:42.836Z,69.16
2019-03-03T06:25:12.527Z,69.06
2019-03-03T06:27:41.955Z,69.00
2019-03-03T06:30:30.752Z,69.04
2019-03-03T06:33:19.504Z,68.99
2019-03-03T06:36:08.286Z,68.84
2019-03-03T06:38:57.064Z,68.92
2019-03-03T06:41:45.833Z,68.76
2019-03-03T06:44:34.646Z,68.86
2019-03-03T06:47:23.405Z,71.71
2019-03-03T06:53:27.996Z,68.05
2019-03-03T06:56:16.781Z,67.31
2019-03-03T06:59:05.600Z,66.92
2019-03-03T07:01:47.174Z,66.91
2019-03-03T07:04:35.945Z,66.21
2019-03-03T07:07:24.705Z,65.89
2019-03-03T07:13:29.045Z,65.92
2019-03-03T07:16:17.830Z,65.50
2019-03-03T07:19:06.617Z,65.14
2019-03-03T07:21:55.417Z,64.91
2019-03-03T07:24:44.176Z,64.48
2019-03-03T07:27:32.960Z,64.06
2019-03-03T07:30:21.724Z,63.80
2019-03-03T07:36:12.651Z,61.70
2019-03-03T07:39:01.430Z,60.64
2019-03-03T07:41:50.252Z,59.71
2019-03-03T07:44:39.021Z,58.08
2019-03-03T07:47:27.818Z,58.20
2019-03-03T07:50:16.593Z,58.17
2019-03-03T07:53:05.429Z,57.76
2019-03-03T07:55:54.208Z,56.73
2019-03-03T07:58:42.988Z,57.04
2019-03-03T08:01:31.778Z,56.85
2019-03-03T08:04:20.579Z,57.08
2019-03-03T08:07:09.350Z,55.94
2019-03-03T08:09:38.792Z,54.63
2019-03-03T08:12:27.560Z,53.88
2019-03-03T08:15:36.394Z,52.68
2019-03-03T08:18:25.165Z,53.40
2019-03-03T08:21:13.955Z,52.54
2019-03-03T08:24:02.745Z,52.13
2019-03-03T08:26:51.506Z,50.97
2019-03-03T08:29:40.317Z,49.71
2019-03-03T08:32:29.096Z,49.37
2019-03-03T08:35:38.804Z,48.27
2019-03-03T08:38:18.600Z,48.51
2019-03-03T08:41:07.426Z,47.59
2019-03-03T08:47:24.612Z,47.82
2019-03-03T08:50:32.442Z,47.09
2019-03-03T08:53:40.245Z,47.32
2019-03-03T08:56:48.080Z,48.16
2019-03-03T08:59:55.920Z,47.61
2019-03-03T09:03:03.721Z,47.93
2019-03-03T09:06:11.561Z,48.49
2019-03-03T09:15:45.386Z,45.87
2019-03-03T09:18:53.209Z,44.49
2019-03-03T09:22:01.025Z,43.05
2019-03-03T09:25:08.834Z,41.68
2019-03-03T09:28:16.635Z,41.13
2019-03-03T09:31:00.292Z,40.62
2019-03-03T09:34:08.137Z,40.90
2019-03-03T09:37:15.935Z,40.70
2019-03-03T09:40:44.660Z,39.32
2019-03-03T09:43:52.479Z,39.20
2019-03-03T09:49:56.187Z,38.67
2019-03-03T09:55:20.984Z,37.09
2019-03-03T09:58:28.793Z,37.77
2019-03-03T10:04:35.544Z,37.71
2019-03-03T10:07:43.359Z,36.89
2019-03-03T10:10:26.495Z,38.03
2019-03-03T10:16:30.211Z,37.04
2019-03-03T10:19:37.962Z,36.29
2019-03-03T10:25:20.438Z,33.36
2019-03-03T10:28:28.233Z,34.88
2019-03-03T10:31:36.082Z,33.29
2019-03-03T10:37:53.296Z,33.74
2019-03-03T10:44:10.470Z,33.01
2019-03-03T10:47:18.295Z,32.00
2019-03-03T10:56:29.732Z,33.02
2019-03-03T10:59:37.551Z,33.44
2019-03-03T11:05:44.365Z,33.10
2019-03-03T11:08:52.189Z,33.54
2019-03-03T11:12:00.003Z,34.44
2019-03-03T11:15:07.803Z,34.23
2019-03-03T11:21:14.612Z,33.56
2019-03-03T11:27:17.866Z,33.15
2019-03-03T11:30:46.572Z,32.43
2019-03-03T11:33:54.399Z,33.73
2019-03-03T11:40:11.655Z,34.35
2019-03-03T11:43:19.479Z,35.00
2019-03-03T11:49:29.985Z,36.99
2019-03-03T11:52:37.802Z,37.47
2019-03-03T11:55:26.337Z,37.90
2019-03-03T11:58:34.160Z,37.92
2019-03-03T12:01:41.961Z,38.71
2019-03-03T12:04:49.803Z,38.84
2019-03-03T12:07:57.634Z,38.43
2019-03-03T12:11:05.439Z,38.84
2019-03-03T12:20:07.906Z,39.58
2019-03-03T12:23:17.188Z,39.76
2019-03-03T12:26:25.429Z,39.30
2019-03-03T12:29:33.239Z,39.25
2019-03-03T12:32:41.082Z,39.36
2019-03-03T12:38:44.835Z,39.49
2019-03-03T12:41:31.368Z,39.79
2019-03-03T12:44:20.686Z,40.09
2019-03-03T12:46:58.985Z,40.28
2019-03-03T12:49:45.947Z,39.72
2019-03-03T12:52:22.736Z,39.88
2019-03-03T12:55:09.958Z,40.37
2019-03-03T12:57:43.540Z,40.29
2019-03-03T13:00:21.937Z,39.58
2019-03-03T13:03:08.994Z,39.41
2019-03-03T13:05:40.112Z,38.02
2019-03-03T13:08:27.253Z,37.87
2019-03-03T13:11:00.826Z,38.62
2019-03-03T13:13:34.757Z,39.38
2019-03-03T13:16:11.676Z,39.29
2019-03-03T13:18:43.038Z,39.06
2019-03-03T13:21:19.905Z,39.61
2019-03-03T13:24:00.350Z,39.93
2019-03-03T13:26:49.673Z,39.72
2019-03-03T13:29:32.900Z,39.54
2019-03-03T13:32:05.018Z,39.14
2019-03-03T13:34:34.276Z,39.61
2019-03-03T13:37:05.390Z,39.58
2019-03-03T13:39:52.614Z,39.08
2019-03-03T13:42:26.373Z,37.93
2019-03-03T13:44:55.971Z,38.30
2019-03-03T13:47:25.481Z,38.63
2019-03-03T13:49:54.969Z,39.08
2019-03-03T13:52:24.487Z,39.36
2019-03-03T13:54:53.980Z,39.18
2019-03-03T13:57:24.410Z,38.65
2019-03-03T13:59:53.969Z,38.00
2019-03-03T14:02:23.571Z,38.18
2019-03-03T14:04:53.111Z,37.53
2019-03-03T14:07:22.633Z,37.66
2019-03-03T14:09:52.124Z,37.63
2019-03-03T14:12:22.448Z,38.73
2019-03-03T14:14:51.939Z,39.01
2019-03-03T14:17:21.415Z,39.30
2019-03-03T14:19:50.891Z,39.73
2019-03-03T14:22:20.370Z,39.31
2019-03-03T14:24:49.923Z,39.13
2019-03-03T14:27:19.390Z,39.16
2019-03-03T14:29:48.875Z,39.96
2019-03-03T14:32:18.430Z,40.20
2019-03-03T14:34:47.945Z,40.56
2019-03-03T14:37:17.450Z,40.97
2019-03-03T14:39:46.942Z,40.91
2019-03-03T14:42:16.446Z,40.99
2019-03-03T14:44:45.906Z,41.51
2019-03-03T14:47:15.412Z,41.10
2019-03-03T14:49:44.905Z,41.47
2019-03-03T14:52:14.491Z,41.37
2019-03-03T14:58:18.007Z,40.94
2019-03-03T15:04:02.573Z,41.36
2019-03-03T15:06:51.588Z,41.49
2019-03-03T15:09:40.354Z,41.63
2019-03-03T15:12:29.132Z,41.31
2019-03-03T15:15:38.027Z,40.84
2019-03-03T15:18:26.800Z,40.93
2019-03-03T15:21:24.551Z,41.12
2019-03-03T15:30:29.355Z,41.57
2019-03-03T15:33:18.383Z,41.86
2019-03-03T15:35:48.385Z,41.85
2019-03-03T15:38:37.239Z,41.74
2019-03-03T15:44:41.311Z,41.96
2019-03-03T15:47:30.098Z,41.41
2019-03-03T15:50:11.789Z,41.42
2019-03-03T15:53:00.653Z,41.57
2019-03-03T15:55:49.465Z,41.79
2019-03-03T15:58:38.234Z,41.56
2019-03-03T16:01:27.005Z,41.19
2019-03-03T16:04:15.778Z,41.48
2019-03-03T16:07:04.566Z,41.42
2019-03-03T16:13:03.859Z,41.49
2019-03-03T16:15:53.239Z,41.82
2019-03-03T16:18:42.089Z,41.60
2019-03-03T16:24:38.841Z,41.73
2019-03-03T16:33:40.888Z,41.48
2019-03-03T16:36:29.878Z,41.85
2019-03-03T16:39:19.264Z,41.54
2019-03-03T16:42:09.144Z,41.73
2019-03-03T16:44:58.269Z,41.38
2019-03-03T16:47:47.059Z,41.61
2019-03-03T16:50:29.347Z,41.77
2019-03-03T16:53:18.132Z,41.68
2019-03-03T16:59:02.562Z,41.95
2019-03-03T17:01:51.550Z,42.05
2019-03-03T17:04:40.645Z,42.45
2019-03-03T17:08:03.092Z,42.64
2019-03-03T17:13:48.868Z,42.65
2019-03-03T17:19:53.281Z,42.75
2019-03-03T17:22:42.079Z,43.27
2019-03-03T17:28:40.665Z,43.59
2019-03-03T17:31:50.815Z,43.61
2019-03-03T17:34:39.598Z,43.92
2019-03-03T17:37:28.392Z,44.33
2019-03-03T17:40:38.086Z,44.15
2019-03-03T17:43:26.859Z,44.19
2019-03-03T17:46:08.642Z,44.24
2019-03-03T17:49:16.797Z,44.30
2019-03-03T17:52:05.641Z,44.53
2019-03-03T17:58:02.164Z,44.72
2019-03-03T18:00:50.938Z,45.03
2019-03-03T18:03:39.720Z,44.96
2019-03-03T18:06:38.385Z,45.25
2019-03-03T18:09:18.996Z,45.07
2019-03-03T18:12:07.831Z,44.81
2019-03-03T18:14:56.614Z,45.18
2019-03-03T18:17:45.420Z,45.26
2019-03-03T18:20:34.188Z,45.16
2019-03-03T18:23:23.022Z,45.43
2019-03-03T18:26:11.772Z,45.21
2019-03-03T18:28:41.230Z,44.92
2019-03-03T18:31:10.743Z,45.00
2019-03-03T18:33:40.196Z,45.03
2019-03-03T18:36:09.629Z,45.11
2019-03-03T18:38:39.086Z,45.17
2019-03-03T18:41:08.520Z,44.94
2019-03-03T18:43:37.975Z,44.85
2019-03-03T18:46:07.463Z,44.59
2019-03-03T18:48:36.913Z,44.55
2019-03-03T18:51:07.322Z,44.62
2019-03-03T18:53:36.778Z,45.07
2019-03-03T18:56:06.474Z,45.13
2019-03-03T18:58:35.924Z,45.09
2019-03-03T19:01:05.689Z,44.65
2019-03-03T19:03:35.166Z,44.80
2019-03-03T19:06:04.642Z,44.76
2019-03-03T19:08:34.096Z,44.89
2019-03-03T19:11:03.604Z,45.23
2019-03-03T19:13:33.064Z,45.09
2019-03-03T19:16:02.503Z,45.18
2019-03-03T19:18:32.739Z,44.84
2019-03-03T19:21:02.173Z,44.80
2019-03-03T19:23:31.631Z,45.04
2019-03-03T19:26:01.067Z,44.82
2019-03-03T19:28:30.546Z,44.53
2019-03-03T19:30:59.996Z,44.28
2019-03-03T19:33:37.044Z,44.40
2019-03-03T19:36:08.395Z,44.38
2019-03-03T19:38:37.828Z,44.00
2019-03-03T19:41:07.329Z,44.01
2019-03-03T19:43:36.762Z,44.22
2019-03-03T19:46:10.388Z,43.88
2019-03-03T19:48:40.109Z,43.46
2019-03-03T19:51:09.817Z,43.74
2019-03-03T19:53:39.255Z,43.68
2019-03-03T19:56:09.616Z,43.43
2019-03-03T19:58:39.054Z,43.46
2019-03-03T20:01:08.544Z,43.84
2019-03-03T20:03:38.005Z,44.08
2019-03-03T20:06:07.512Z,44.29
2019-03-03T20:08:36.966Z,44.07
2019-03-03T20:11:06.394Z,44.17
2019-03-03T20:13:35.925Z,44.06
2019-03-03T20:16:06.265Z,44.45
2019-03-03T20:18:35.712Z,44.24
2019-03-03T20:21:05.317Z,44.35
2019-03-03T20:23:34.783Z,44.41
2019-03-03T20:26:04.373Z,44.62
2019-03-03T20:28:33.805Z,44.79
2019-03-03T20:31:04.052Z,44.77
2019-03-03T20:33:33.474Z,44.92
2019-03-03T20:36:02.949Z,44.84
2019-03-03T20:38:32.426Z,44.92
2019-03-03T20:41:01.877Z,45.31
2019-03-03T20:43:31.301Z,44.89
2019-03-03T20:46:00.759Z,45.12
2019-03-03T20:48:30.181Z,44.88
2019-03-03T20:50:59.612Z,45.04
2019-03-03T20:53:29.064Z,45.42
2019-03-03T20:55:58.585Z,45.38
2019-03-03T20:58:28.028Z,45.59
2019-03-03T21:00:57.455Z,45.74
2019-03-03T21:03:26.974Z,45.76
2019-03-03T21:05:56.432Z,45.80
2019-03-03T21:08:25.846Z,45.61
2019-03-03T21:10:55.297Z,45.45
2019-03-03T21:13:24.731Z,45.81
2019-03-03T21:15:54.172Z,45.77
2019-03-03T21:18:23.617Z,45.48
2019-03-03T21:20:53.045Z,45.49
2019-03-03T21:23:22.492Z,45.39
2019-03-03T21:25:51.925Z,45.09
2019-03-03T21:28:21.368Z,45.12
2019-03-03T21:30:51.745Z,44.86
2019-03-03T21:33:21.182Z,44.91
2019-03-03T21:35:50.938Z,44.90
2019-03-03T21:38:20.368Z,44.59
2019-03-03T21:40:49.828Z,45.09
2019-03-03T21:43:20.953Z,44.89
2019-03-03T21:45:50.593Z,44.93
2019-03-03T21:48:20.081Z,44.76
2019-03-03T21:50:49.535Z,45.32
2019-03-03T21:53:18.971Z,45.28
2019-03-03T21:55:48.430Z,45.16
2019-03-03T21:58:17.871Z,45.40
2019-03-03T22:00:47.489Z,45.46
2019-03-03T22:03:16.931Z,45.29
2019-03-03T22:05:46.376Z,45.18
2019-03-03T22:08:15.852Z,45.21
2019-03-03T22:10:45.303Z,45.35
2019-03-03T22:13:14.735Z,45.53
2019-03-03T22:15:44.188Z,45.47
2019-03-03T22:18:13.858Z,45.31
2019-03-03T22:20:43.306Z,45.59
2019-03-03T22:23:12.738Z,45.51
2019-03-03T22:25:42.200Z,45.94
2019-03-03T22:28:11.624Z,45.81
2019-03-03T22:30:41.081Z,45.86
2019-03-03T22:33:10.543Z,45.67
2019-03-03T22:35:40.003Z,45.93
2019-03-03T22:38:09.440Z,46.12
2019-03-03T22:40:38.887Z,46.09
2019-03-03T22:43:08.320Z,46.38
2019-03-03T22:45:37.782Z,46.35
2019-03-03T22:48:07.223Z,46.50
2019-03-03T22:50:36.676Z,46.54
2019-03-03T22:53:06.107Z,46.83
2019-03-03T22:55:36.813Z,46.93
2019-03-03T22:58:06.489Z,47.00
2019-03-03T23:00:44.573Z,46.84
2019-03-03T23:03:24.656Z,47.17
2019-03-03T23:06:33.527Z,47.29
2019-03-03T23:09:32.120Z,47.40
2019-03-03T23:12:21.007Z,47.48
2019-03-03T23:14:57.858Z,47.46
2019-03-03T23:18:08.358Z,47.64
2019-03-03T23:20:58.944Z,47.86
2019-03-03T23:23:47.746Z,47.88
2019-03-03T23:26:17.188Z,47.94
2019-03-03T23:28:46.620Z,48.01
2019-03-03T23:31:16.069Z,48.04
2019-03-03T23:33:45.496Z,48.02
2019-03-03T23:36:14.974Z,48.20
2019-03-03T23:38:44.399Z,47.97
2019-03-03T23:41:13.845Z,47.79
2019-03-03T23:43:43.284Z,47.73
2019-03-03T23:46:12.725Z,47.62
2019-03-03T23:48:42.170Z,47.74
2019-03-03T23:51:11.621Z,47.39
2019-03-03T23:53:41.056Z,47.32
2019-03-03T23:56:10.550Z,47.76
2019-03-03T23:58:39.967Z,47.42
